»·PEaware :: N130F KBZN-KGPI

N130F :: KBZN-KGPI

FLIGHT INFORMATION

Flight Status: Arrived
Operator: Privately registered:
United States
More flights under this callsign
Pilot: David J. (24489)
Aircraft: DASSAULT AVIATION FALCON 50
(FA50)
More flights by this aircraft type
Origin: KBZN Gallatin
United States
Destination: KGPI Glacier Park Intl
United States
More flights between these airports :: More routes between these airports
Route: +TEERX4 HIA ITONE
File this flight plan on PilotEdge
Remarks: RMK / SIMBRIEF
Altitude:
(Current/Filed)
43,000ft
Speed:
(Current/Filed)
455kts
Departed: 19-Jan-20 05:13 PM
Arrived: 19-Jan-20 05:57 PM
Distance/Time
Traveled:
198nm/0:43
Distance/Time
To Go:
Arrived

Flight Plot

Page will automatically refresh every two minutes.


Map Options




Map Legend


Flown Route
Filed Route
Departure Airport
Arrival Airport
Navaid (VOR, NDB)
Fix

Horizontal Profiles

Position Reports

Time Latitude Longitude Heading Altitude Ground
Speed
19-Jan-20 16:53 45.772541 -111.151975 225 4474ft 0kts
19-Jan-20 16:54 45.772541 -111.151975 225 4474ft 0kts
19-Jan-20 16:55 45.772541 -111.151975 225 4474ft 0kts
19-Jan-20 16:56 45.772541 -111.151975 225 4474ft 0kts
19-Jan-20 16:57 45.772541 -111.151975 225 4474ft 0kts
19-Jan-20 16:58 45.772541 -111.151975 225 4474ft 0kts
19-Jan-20 16:59 45.772541 -111.151975 225 4474ft 0kts
19-Jan-20 17:00 45.772541 -111.151975 225 4474ft 0kts
19-Jan-20 17:01 45.772541 -111.151975 225 4474ft 0kts
19-Jan-20 17:02 45.772646 -111.151824 225 4474ft 2kts
19-Jan-20 17:03 45.772634 -111.151856 244 4474ft 0kts
19-Jan-20 17:04 45.773836 -111.151244 323 4474ft 7kts
19-Jan-20 17:05 45.775140 -111.152998 316 4474ft 5kts
19-Jan-20 17:06 45.776313 -111.154573 316 4474ft 6kts
19-Jan-20 17:07 45.778381 -111.157351 316 4474ft 13kts
19-Jan-20 17:08 45.781442 -111.161461 316 4474ft 11kts
19-Jan-20 17:09 45.782804 -111.163349 315 4474ft 9kts
19-Jan-20 17:10 45.786556 -111.167924 22 4474ft 10kts
19-Jan-20 17:11 45.787437 -111.166807 46 4474ft 3kts
19-Jan-20 17:12 45.777531 -111.151734 136 4475ft 149kts
19-Jan-20 17:13 45.734088 -111.113870 192 6679ft 223kts
19-Jan-20 17:14 45.701630 -111.200004 260 9346ft 249kts
19-Jan-20 17:15 45.708291 -111.298267 280 14350ft 237kts
19-Jan-20 17:16 45.720407 -111.406369 280 16003ft 344kts
19-Jan-20 17:17 45.737161 -111.555964 280 19463ft 388kts
19-Jan-20 17:18 45.756973 -111.692700 289 24639ft 348kts
19-Jan-20 17:19 45.790436 -111.843131 289 24460ft 438kts
19-Jan-20 17:21 45.828556 -112.016972 289 24441ft 459kts
19-Jan-20 17:22 45.883288 -112.177780 312 24440ft 450kts
19-Jan-20 17:23 45.986674 -112.278132 326 24433ft 450kts
19-Jan-20 17:24 46.093291 -112.372765 326 24433ft 450kts
19-Jan-20 17:25 46.199904 -112.467200 326 24433ft 450kts
19-Jan-20 17:26 46.306800 -112.562206 326 24432ft 452kts
19-Jan-20 17:27 46.413987 -112.657894 326 24434ft 455kts
19-Jan-20 17:28 46.521870 -112.754652 326 24435ft 456kts
19-Jan-20 17:29 46.630075 -112.852158 326 24435ft 457kts
19-Jan-20 17:30 46.738150 -112.950013 326 24435ft 458kts
19-Jan-20 17:31 46.845957 -113.048096 326 24435ft 458kts
19-Jan-20 17:32 46.954363 -113.147199 326 24425ft 458kts
19-Jan-20 17:33 47.062394 -113.246440 326 24422ft 459kts
19-Jan-20 17:34 47.170315 -113.346060 326 24422ft 459kts
19-Jan-20 17:35 47.278236 -113.446155 326 24427ft 447kts
19-Jan-20 17:36 47.377424 -113.538552 325 24412ft 402kts
19-Jan-20 17:37 47.466591 -113.622696 321 22890ft 360kts
19-Jan-20 17:38 47.529808 -113.727003 308 20137ft 324kts
19-Jan-20 17:39 47.586670 -113.826547 308 16816ft 313kts
19-Jan-20 17:40 47.642735 -113.923364 308 13588ft 299kts
19-Jan-20 17:40 47.684834 -113.995991 307 12307ft 261kts
19-Jan-20 17:42 47.735542 -114.083846 307 11994ft 241kts
19-Jan-20 17:43 47.790706 -114.179995 308 11821ft 335kts
19-Jan-20 17:43 47.832961 -114.253366 307 10496ft 252kts
19-Jan-20 17:45 47.885582 -114.345406 307 9035ft 240kts
19-Jan-20 17:45 47.920249 -114.406194 307 9006ft 223kts
19-Jan-20 17:46 47.960394 -114.476809 307 9006ft 226kts
19-Jan-20 17:48 48.006637 -114.558281 306 8987ft 205kts
19-Jan-20 17:48 48.042948 -114.585860 22 9033ft 202kts
19-Jan-20 17:49 48.089465 -114.530265 50 8319ft 223kts
19-Jan-20 17:50 48.123201 -114.458629 55 6579ft 191kts
19-Jan-20 17:51 48.158262 -114.412927 34 6394ft 171kts
19-Jan-20 17:52 48.200573 -114.369251 33 5457ft 171kts
19-Jan-20 17:53 48.237136 -114.331369 37 4469ft 156kts
19-Jan-20 17:54 48.271892 -114.295436 35 3670ft 145kts
19-Jan-20 17:55 48.304013 -114.262301 35 2987ft 127kts
19-Jan-20 17:56 48.311965 -114.252828 88 2980ft 0kts
19-Jan-20 17:57 48.312086 -114.252076 77 2980ft 6kts
19-Jan-20 17:58 48.311258 -114.251478 217 2980ft 0kts
19-Jan-20 17:59 48.311258 -114.251478 217 2980ft 0kts
19-Jan-20 18:00 48.311258 -114.251478 217 2980ft 0kts

Navigation Log

Ident Type
Flight plan parsing failed, navigation log unavailable